sensor_id;sensor_type;location;lat;lon;timestamp;temperature;humidity
36790;DHT22;22740;52.182;8.780;2024-01-30T00:00:41;4.50;99.90
36790;DHT22;22740;52.182;8.780;2024-01-30T00:06:46;4.50;99.90
36790;DHT22;22740;52.182;8.780;2024-01-30T00:12:48;4.70;99.90
36790;DHT22;22740;52.182;8.780;2024-01-30T00:18:53;4.90;99.90
36790;DHT22;22740;52.182;8.780;2024-01-30T00:24:55;4.70;99.90
36790;DHT22;22740;52.182;8.780;2024-01-30T00:30:57;4.70;99.90
36790;DHT22;22740;52.182;8.780;2024-01-30T00:36:59;4.60;99.90
36790;DHT22;22740;52.182;8.780;2024-01-30T00:43:01;4.50;99.90
36790;DHT22;22740;52.182;8.780;2024-01-30T00:49:03;4.20;99.90
36790;DHT22;22740;52.182;8.780;2024-01-30T00:55:05;4.20;99.90
36790;DHT22;22740;52.182;8.780;2024-01-30T01:01:07;4.10;99.90
36790;DHT22;22740;52.182;8.780;2024-01-30T01:07:10;4.20;99.90
36790;DHT22;22740;52.182;8.780;2024-01-30T01:13:12;4.20;99.90
36790;DHT22;22740;52.182;8.780;2024-01-30T01:19:14;4.10;99.90
36790;DHT22;22740;52.182;8.780;2024-01-30T01:25:16;4.00;99.90
36790;DHT22;22740;52.182;8.780;2024-01-30T01:31:18;4.00;99.90
36790;DHT22;22740;52.182;8.780;2024-01-30T01:37:21;3.90;99.90
36790;DHT22;22740;52.182;8.780;2024-01-30T01:43:24;3.80;99.90
36790;DHT22;22740;52.182;8.780;2024-01-30T01:49:27;3.90;99.90
36790;DHT22;22740;52.182;8.780;2024-01-30T01:55:30;4.00;99.90
36790;DHT22;22740;52.182;8.780;2024-01-30T02:01:33;4.10;99.90
36790;DHT22;22740;52.182;8.780;2024-01-30T02:07:35;4.30;99.90
36790;DHT22;22740;52.182;8.780;2024-01-30T02:13:37;4.70;99.90
36790;DHT22;22740;52.182;8.780;2024-01-30T02:19:39;4.70;99.90
36790;DHT22;22740;52.182;8.780;2024-01-30T02:25:42;5.20;99.90
36790;DHT22;22740;52.182;8.780;2024-01-30T02:31:47;5.30;99.90
36790;DHT22;22740;52.182;8.780;2024-01-30T02:37:49;5.10;99.90
36790;DHT22;22740;52.182;8.780;2024-01-30T02:43:51;5.70;99.90
36790;DHT22;22740;52.182;8.780;2024-01-30T02:49:53;5.90;99.90
36790;DHT22;22740;52.182;8.780;2024-01-30T02:55:57;6.10;99.90
36790;DHT22;22740;52.182;8.780;2024-01-30T03:01:59;6.20;99.90
36790;DHT22;22740;52.182;8.780;2024-01-30T03:08:01;6.20;99.90
36790;DHT22;22740;52.182;8.780;2024-01-30T03:14:03;5.70;99.90
36790;DHT22;22740;52.182;8.780;2024-01-30T03:20:06;6.00;99.90
36790;DHT22;22740;52.182;8.780;2024-01-30T03:26:08;6.10;99.90
36790;DHT22;22740;52.182;8.780;2024-01-30T03:32:10;6.30;99.90
36790;DHT22;22740;52.182;8.780;2024-01-30T03:38:13;6.40;99.90
36790;DHT22;22740;52.182;8.780;2024-01-30T03:44:14;6.40;99.90
36790;DHT22;22740;52.182;8.780;2024-01-30T03:50:16;6.30;99.90
36790;DHT22;22740;52.182;8.780;2024-01-30T03:56:18;6.40;99.90
36790;DHT22;22740;52.182;8.780;2024-01-30T04:02:21;6.40;99.90
36790;DHT22;22740;52.182;8.780;2024-01-30T04:08:23;6.50;99.90
36790;DHT22;22740;52.182;8.780;2024-01-30T04:14:25;6.60;99.90
36790;DHT22;22740;52.182;8.780;2024-01-30T04:20:27;6.60;99.90
36790;DHT22;22740;52.182;8.780;2024-01-30T04:26:29;6.60;99.90
36790;DHT22;22740;52.182;8.780;2024-01-30T04:32:32;6.60;99.90
36790;DHT22;22740;52.182;8.780;2024-01-30T04:38:34;6.70;99.90
36790;DHT22;22740;52.182;8.780;2024-01-30T04:44:36;6.70;99.90
36790;DHT22;22740;52.182;8.780;2024-01-30T04:50:38;6.80;99.90
36790;DHT22;22740;52.182;8.780;2024-01-30T04:56:39;6.90;99.90
36790;DHT22;22740;52.182;8.780;2024-01-30T05:02:41;7.00;99.90
36790;DHT22;22740;52.182;8.780;2024-01-30T05:08:43;7.00;99.90
36790;DHT22;22740;52.182;8.780;2024-01-30T05:14:45;7.10;99.90
36790;DHT22;22740;52.182;8.780;2024-01-30T05:20:47;7.10;99.90
36790;DHT22;22740;52.182;8.780;2024-01-30T05:26:49;7.20;99.90
36790;DHT22;22740;52.182;8.780;2024-01-30T05:32:52;7.20;99.90
36790;DHT22;22740;52.182;8.780;2024-01-30T05:38:56;7.10;99.90
36790;DHT22;22740;52.182;8.780;2024-01-30T05:44:58;7.10;99.90
36790;DHT22;22740;52.182;8.780;2024-01-30T05:51:00;7.10;99.90
36790;DHT22;22740;52.182;8.780;2024-01-30T05:57:02;7.10;99.90
36790;DHT22;22740;52.182;8.780;2024-01-30T06:03:04;7.00;99.90
36790;DHT22;22740;52.182;8.780;2024-01-30T06:09:06;7.00;99.90
36790;DHT22;22740;52.182;8.780;2024-01-30T06:15:10;7.10;99.90
36790;DHT22;22740;52.182;8.780;2024-01-30T06:21:14;7.10;99.90
36790;DHT22;22740;52.182;8.780;2024-01-30T06:27:16;7.20;99.90
36790;DHT22;22740;52.182;8.780;2024-01-30T06:33:19;7.20;99.90
36790;DHT22;22740;52.182;8.780;2024-01-30T06:39:21;7.00;99.90
36790;DHT22;22740;52.182;8.780;2024-01-30T06:45:23;7.10;99.90
36790;DHT22;22740;52.182;8.780;2024-01-30T06:51:25;7.00;99.90
36790;DHT22;22740;52.182;8.780;2024-01-30T06:57:27;7.10;99.90
36790;DHT22;22740;52.182;8.780;2024-01-30T07:03:30;7.20;99.90
36790;DHT22;22740;52.182;8.780;2024-01-30T07:09:31;7.00;99.90
36790;DHT22;22740;52.182;8.780;2024-01-30T07:15:33;7.00;99.90
36790;DHT22;22740;52.182;8.780;2024-01-30T07:21:35;6.90;99.90
36790;DHT22;22740;52.182;8.780;2024-01-30T07:27:37;7.00;99.90
36790;DHT22;22740;52.182;8.780;2024-01-30T07:33:39;7.10;99.90
36790;DHT22;22740;52.182;8.780;2024-01-30T07:39:41;7.20;99.90
36790;DHT22;22740;52.182;8.780;2024-01-30T07:45:44;7.10;99.90
36790;DHT22;22740;52.182;8.780;2024-01-30T07:51:46;7.10;99.90
36790;DHT22;22740;52.182;8.780;2024-01-30T07:57:48;7.10;99.90
36790;DHT22;22740;52.182;8.780;2024-01-30T08:03:53;7.10;99.90
36790;DHT22;22740;52.182;8.780;2024-01-30T08:09:55;7.30;99.90
36790;DHT22;22740;52.182;8.780;2024-01-30T08:15:57;7.50;99.90
36790;DHT22;22740;52.182;8.780;2024-01-30T08:21:59;7.60;99.90
36790;DHT22;22740;52.182;8.780;2024-01-30T08:28:01;7.60;99.90
36790;DHT22;22740;52.182;8.780;2024-01-30T08:34:03;7.80;99.90
36790;DHT22;22740;52.182;8.780;2024-01-30T08:40:07;7.80;99.90
36790;DHT22;22740;52.182;8.780;2024-01-30T08:46:11;8.10;99.90
36790;DHT22;22740;52.182;8.780;2024-01-30T08:52:13;8.30;99.90
36790;DHT22;22740;52.182;8.780;2024-01-30T08:58:15;8.40;99.90
36790;DHT22;22740;52.182;8.780;2024-01-30T09:04:19;8.20;99.90
36790;DHT22;22740;52.182;8.780;2024-01-30T09:10:26;7.90;99.90
36790;DHT22;22740;52.182;8.780;2024-01-30T09:16:28;7.90;99.90
36790;DHT22;22740;52.182;8.780;2024-01-30T09:22:30;8.00;99.90
36790;DHT22;22740;52.182;8.780;2024-01-30T09:28:33;8.20;99.90
36790;DHT22;22740;52.182;8.780;2024-01-30T09:34:35;8.30;99.90
36790;DHT22;22740;52.182;8.780;2024-01-30T09:40:37;8.40;99.90
36790;DHT22;22740;52.182;8.780;2024-01-30T09:46:43;8.60;99.90
36790;DHT22;22740;52.182;8.780;2024-01-30T09:52:47;8.80;99.90
36790;DHT22;22740;52.182;8.780;2024-01-30T09:58:49;9.00;99.90
36790;DHT22;22740;52.182;8.780;2024-01-30T10:04:52;9.20;99.90
36790;DHT22;22740;52.182;8.780;2024-01-30T10:10:54;9.30;99.90
36790;DHT22;22740;52.182;8.780;2024-01-30T10:16:57;9.50;99.90
36790;DHT22;22740;52.182;8.780;2024-01-30T10:22:59;9.60;99.90
36790;DHT22;22740;52.182;8.780;2024-01-30T10:29:01;9.60;99.90
36790;DHT22;22740;52.182;8.780;2024-01-30T10:35:04;9.60;99.90
36790;DHT22;22740;52.182;8.780;2024-01-30T10:41:06;9.60;99.90
36790;DHT22;22740;52.182;8.780;2024-01-30T10:47:12;9.60;99.90
36790;DHT22;22740;52.182;8.780;2024-01-30T10:53:15;9.80;99.90
36790;DHT22;22740;52.182;8.780;2024-01-30T10:59:19;9.80;99.90
36790;DHT22;22740;52.182;8.780;2024-01-30T11:05:27;10.00;99.90
36790;DHT22;22740;52.182;8.780;2024-01-30T11:11:56;10.30;99.90
36790;DHT22;22740;52.182;8.780;2024-01-30T11:18:02;10.70;99.90
36790;DHT22;22740;52.182;8.780;2024-01-30T11:24:04;10.90;99.90
36790;DHT22;22740;52.182;8.780;2024-01-30T11:30:08;11.20;99.90
36790;DHT22;22740;52.182;8.780;2024-01-30T11:36:12;11.50;99.90
36790;DHT22;22740;52.182;8.780;2024-01-30T11:42:15;11.50;99.90
36790;DHT22;22740;52.182;8.780;2024-01-30T11:48:17;11.50;99.90
36790;DHT22;22740;52.182;8.780;2024-01-30T11:54:19;11.50;99.90
36790;DHT22;22740;52.182;8.780;2024-01-30T12:00:24;11.50;99.90
36790;DHT22;22740;52.182;8.780;2024-01-30T12:06:27;11.50;99.90
36790;DHT22;22740;52.182;8.780;2024-01-30T12:12:30;11.50;99.90
36790;DHT22;22740;52.182;8.780;2024-01-30T12:18:32;11.60;99.90
36790;DHT22;22740;52.182;8.780;2024-01-30T12:24:35;11.70;99.90
36790;DHT22;22740;52.182;8.780;2024-01-30T12:30:37;11.80;99.90
36790;DHT22;22740;52.182;8.780;2024-01-30T12:36:38;11.80;99.90
36790;DHT22;22740;52.182;8.780;2024-01-30T12:42:41;11.60;99.90
36790;DHT22;22740;52.182;8.780;2024-01-30T12:48:44;11.60;99.90
36790;DHT22;22740;52.182;8.780;2024-01-30T12:54:49;11.50;99.90
36790;DHT22;22740;52.182;8.780;2024-01-30T13:00:53;11.40;99.90
36790;DHT22;22740;52.182;8.780;2024-01-30T13:06:56;11.30;99.90
36790;DHT22;22740;52.182;8.780;2024-01-30T13:12:59;11.20;99.90
36790;DHT22;22740;52.182;8.780;2024-01-30T13:19:01;11.20;99.90
36790;DHT22;22740;52.182;8.780;2024-01-30T13:25:04;11.20;99.90
36790;DHT22;22740;52.182;8.780;2024-01-30T13:31:06;11.10;99.90
36790;DHT22;22740;52.182;8.780;2024-01-30T13:37:08;11.10;99.90
36790;DHT22;22740;52.182;8.780;2024-01-30T13:43:10;11.10;99.90
36790;DHT22;22740;52.182;8.780;2024-01-30T13:49:12;11.10;99.90
36790;DHT22;22740;52.182;8.780;2024-01-30T13:55:15;11.10;99.90
36790;DHT22;22740;52.182;8.780;2024-01-30T14:01:17;11.20;99.90
36790;DHT22;22740;52.182;8.780;2024-01-30T14:07:19;11.10;99.90
36790;DHT22;22740;52.182;8.780;2024-01-30T14:13:21;11.10;99.90
36790;DHT22;22740;52.182;8.780;2024-01-30T14:19:24;11.10;99.90
36790;DHT22;22740;52.182;8.780;2024-01-30T14:25:26;11.20;99.90
36790;DHT22;22740;52.182;8.780;2024-01-30T14:31:28;11.20;99.90
36790;DHT22;22740;52.182;8.780;2024-01-30T14:37:30;11.20;99.90
36790;DHT22;22740;52.182;8.780;2024-01-30T14:43:32;11.30;99.90
36790;DHT22;22740;52.182;8.780;2024-01-30T14:49:34;11.20;99.90
36790;DHT22;22740;52.182;8.780;2024-01-30T14:55:36;11.20;99.90
36790;DHT22;22740;52.182;8.780;2024-01-30T15:01:38;11.20;99.90
36790;DHT22;22740;52.182;8.780;2024-01-30T15:07:40;11.30;99.90
36790;DHT22;22740;52.182;8.780;2024-01-30T15:13:42;11.30;99.90
36790;DHT22;22740;52.182;8.780;2024-01-30T15:19:44;11.20;99.90
36790;DHT22;22740;52.182;8.780;2024-01-30T15:25:46;11.10;99.90
36790;DHT22;22740;52.182;8.780;2024-01-30T15:31:48;11.20;99.90
36790;DHT22;22740;52.182;8.780;2024-01-30T15:37:50;11.20;99.90
36790;DHT22;22740;52.182;8.780;2024-01-30T15:43:53;11.10;99.90
36790;DHT22;22740;52.182;8.780;2024-01-30T15:49:55;11.10;99.90
36790;DHT22;22740;52.182;8.780;2024-01-30T15:55:57;11.10;99.90
36790;DHT22;22740;52.182;8.780;2024-01-30T16:01:59;11.00;99.90
36790;DHT22;22740;52.182;8.780;2024-01-30T16:08:01;10.90;99.90
36790;DHT22;22740;52.182;8.780;2024-01-30T16:14:03;10.80;99.90
36790;DHT22;22740;52.182;8.780;2024-01-30T16:20:05;10.80;99.90
36790;DHT22;22740;52.182;8.780;2024-01-30T16:26:08;10.70;99.90
36790;DHT22;22740;52.182;8.780;2024-01-30T16:32:10;10.70;99.90
36790;DHT22;22740;52.182;8.780;2024-01-30T16:38:12;10.70;99.90
36790;DHT22;22740;52.182;8.780;2024-01-30T16:44:14;10.70;99.90
36790;DHT22;22740;52.182;8.780;2024-01-30T16:50:16;10.70;99.90
36790;DHT22;22740;52.182;8.780;2024-01-30T16:56:18;10.70;99.90
36790;DHT22;22740;52.182;8.780;2024-01-30T17:02:20;10.60;99.90
36790;DHT22;22740;52.182;8.780;2024-01-30T17:08:22;10.70;99.90
36790;DHT22;22740;52.182;8.780;2024-01-30T17:14:24;10.90;99.90
36790;DHT22;22740;52.182;8.780;2024-01-30T17:20:25;10.80;99.90
36790;DHT22;22740;52.182;8.780;2024-01-30T17:26:28;10.70;99.90
36790;DHT22;22740;52.182;8.780;2024-01-30T17:32:30;10.70;99.90
36790;DHT22;22740;52.182;8.780;2024-01-30T17:38:32;10.50;99.90
36790;DHT22;22740;52.182;8.780;2024-01-30T17:44:34;10.30;99.90
36790;DHT22;22740;52.182;8.780;2024-01-30T17:50:41;10.20;99.90
36790;DHT22;22740;52.182;8.780;2024-01-30T17:56:46;9.90;99.90
36790;DHT22;22740;52.182;8.780;2024-01-30T18:02:48;9.80;99.90
36790;DHT22;22740;52.182;8.780;2024-01-30T18:08:50;9.70;99.90
36790;DHT22;22740;52.182;8.780;2024-01-30T18:14:52;9.50;99.90
36790;DHT22;22740;52.182;8.780;2024-01-30T18:20:54;9.50;99.90
36790;DHT22;22740;52.182;8.780;2024-01-30T18:26:56;9.50;99.90
36790;DHT22;22740;52.182;8.780;2024-01-30T18:32:58;9.50;99.90
36790;DHT22;22740;52.182;8.780;2024-01-30T18:39:00;9.50;99.90
36790;DHT22;22740;52.182;8.780;2024-01-30T18:45:02;9.50;99.90
36790;DHT22;22740;52.182;8.780;2024-01-30T18:51:05;9.50;99.90
36790;DHT22;22740;52.182;8.780;2024-01-30T18:57:07;9.40;99.90
36790;DHT22;22740;52.182;8.780;2024-01-30T19:03:09;9.40;99.90
36790;DHT22;22740;52.182;8.780;2024-01-30T19:09:11;9.30;99.90
36790;DHT22;22740;52.182;8.780;2024-01-30T19:15:14;9.40;99.90
36790;DHT22;22740;52.182;8.780;2024-01-30T19:21:16;9.30;99.90
36790;DHT22;22740;52.182;8.780;2024-01-30T19:27:18;9.30;99.90
36790;DHT22;22740;52.182;8.780;2024-01-30T19:33:20;9.30;99.90
36790;DHT22;22740;52.182;8.780;2024-01-30T19:39:22;9.10;99.90
36790;DHT22;22740;52.182;8.780;2024-01-30T19:45:24;9.10;99.90
36790;DHT22;22740;52.182;8.780;2024-01-30T19:51:26;9.10;99.90
36790;DHT22;22740;52.182;8.780;2024-01-30T19:57:28;9.00;99.90
36790;DHT22;22740;52.182;8.780;2024-01-30T20:03:30;8.90;99.90
36790;DHT22;22740;52.182;8.780;2024-01-30T20:09:32;8.80;99.90
36790;DHT22;22740;52.182;8.780;2024-01-30T20:15:33;8.80;99.90
36790;DHT22;22740;52.182;8.780;2024-01-30T20:21:36;8.70;99.90
36790;DHT22;22740;52.182;8.780;2024-01-30T20:27:38;8.70;99.90
36790;DHT22;22740;52.182;8.780;2024-01-30T20:33:40;8.70;99.90
36790;DHT22;22740;52.182;8.780;2024-01-30T20:39:42;8.60;99.90
36790;DHT22;22740;52.182;8.780;2024-01-30T20:45:44;8.60;99.90
36790;DHT22;22740;52.182;8.780;2024-01-30T20:51:46;8.40;99.90
36790;DHT22;22740;52.182;8.780;2024-01-30T20:57:48;8.40;99.90
36790;DHT22;22740;52.182;8.780;2024-01-30T21:03:50;8.30;99.90
36790;DHT22;22740;52.182;8.780;2024-01-30T21:09:52;8.30;99.90
36790;DHT22;22740;52.182;8.780;2024-01-30T21:15:54;8.10;99.90
36790;DHT22;22740;52.182;8.780;2024-01-30T21:21:56;8.20;99.90
36790;DHT22;22740;52.182;8.780;2024-01-30T21:27:58;8.10;99.90
36790;DHT22;22740;52.182;8.780;2024-01-30T21:33:59;8.10;99.90
36790;DHT22;22740;52.182;8.780;2024-01-30T21:40:02;8.10;99.90
36790;DHT22;22740;52.182;8.780;2024-01-30T21:46:05;7.90;99.90
36790;DHT22;22740;52.182;8.780;2024-01-30T21:52:08;7.90;99.90
36790;DHT22;22740;52.182;8.780;2024-01-30T21:58:10;7.90;99.90
36790;DHT22;22740;52.182;8.780;2024-01-30T22:04:12;7.80;99.90
36790;DHT22;22740;52.182;8.780;2024-01-30T22:10:14;7.80;99.90
36790;DHT22;22740;52.182;8.780;2024-01-30T22:16:16;7.70;99.90
36790;DHT22;22740;52.182;8.780;2024-01-30T22:22:18;7.50;99.90
36790;DHT22;22740;52.182;8.780;2024-01-30T22:28:20;7.30;99.90
36790;DHT22;22740;52.182;8.780;2024-01-30T22:34:23;7.10;99.90
36790;DHT22;22740;52.182;8.780;2024-01-30T22:40:25;7.10;99.90
36790;DHT22;22740;52.182;8.780;2024-01-30T22:46:27;7.10;99.90
36790;DHT22;22740;52.182;8.780;2024-01-30T22:52:28;7.00;99.90
36790;DHT22;22740;52.182;8.780;2024-01-30T22:58:30;6.90;99.90
36790;DHT22;22740;52.182;8.780;2024-01-30T23:04:33;6.90;99.90
36790;DHT22;22740;52.182;8.780;2024-01-30T23:10:35;6.90;99.90
36790;DHT22;22740;52.182;8.780;2024-01-30T23:16:37;6.90;99.90
36790;DHT22;22740;52.182;8.780;2024-01-30T23:22:39;6.90;99.90
36790;DHT22;22740;52.182;8.780;2024-01-30T23:28:41;6.90;99.90
36790;DHT22;22740;52.182;8.780;2024-01-30T23:34:44;6.80;99.90
36790;DHT22;22740;52.182;8.780;2024-01-30T23:40:46;6.90;99.90
36790;DHT22;22740;52.182;8.780;2024-01-30T23:46:50;6.90;99.90
36790;DHT22;22740;52.182;8.780;2024-01-30T23:52:51;6.90;99.90
36790;DHT22;22740;52.182;8.780;2024-01-30T23:58:53;6.80;99.90
